Time;durP1;ratioP1;P1;durP2;ratioP2;P2;SDS_P1;SDS_P2;PMS_P1;PMS_P2;Temp;Humidity;BMP_temperature;BMP_pressure;BME280_temperature;BME280_humidity;BME280_pressure;Samples;Min_cycle;Max_cycle;Signal;HPM_P1;HPM_P2
2023/09/03 00:07:16;;;;;;;10.8;8.1;;;;;;;15.31;89.37;;;;;
2023/09/03 00:17:16;;;;;;;8.7;7.5;;;;;;;15.18;89.07;;;;;
2023/09/03 00:28:16;;;;;;;8.7;7.5;;;;;;;14.99;89.16;;;;;
2023/09/03 00:39:18;;;;;;;8.7;7.5;;;;;;;14.87;89.52;;;;;
2023/09/03 00:49:16;;;;;;;10;7.5;;;;;;;14.83;89.59;;;;;
2023/09/03 01:00:16;;;;;;;10;7.5;;;;;;;14.59;89.54;;;;;
2023/09/03 01:10:16;;;;;;;10;7.5;;;;;;;14.39;90.27;;;;;
2023/09/03 01:21:16;;;;;;;9.3;5.7;;;;;;;14.28;90.28;;;;;
2023/09/03 01:32:16;;;;;;;9.3;5.7;;;;;;;14.31;90.86;;;;;
2023/09/03 01:42:16;;;;;;;9.3;5.7;;;;;;;14.39;91.02;;;;;
2023/09/03 01:52:16;;;;;;;8.1;5.6;;;;;;;14.36;90.81;;;;;
2023/09/03 02:03:16;;;;;;;8.1;5.6;;;;;;;14.23;90.36;;;;;
2023/09/03 02:13:16;;;;;;;11.2;6.7;;;;;;;14.13;90.2;;;;;
2023/09/03 02:23:17;;;;;;;11.2;6.7;;;;;;;14.03;90.02;;;;;
2023/09/03 02:34:17;;;;;;;11.2;6.7;;;;;;;13.9;90.1;;;;;
2023/09/03 02:44:17;;;;;;;9.9;4.8;;;;;;;13.76;90.33;;;;;
2023/09/03 02:55:16;;;;;;;9.9;4.8;;;;;;;13.62;90.81;;;;;
2023/09/03 03:05:17;;;;;;;9.9;4.8;;;;;;;13.78;91.14;;;;;
2023/09/03 03:15:17;;;;;;;7.2;3.6;;;;;;;13.7;91;;;;;
2023/09/03 03:26:16;;;;;;;7.2;3.6;;;;;;;13.64;91.23;;;;;
2023/09/03 03:36:16;;;;;;;7.2;3.6;;;;;;;13.76;91.49;;;;;
2023/09/03 03:46:16;;;;;;;8.1;5.6;;;;;;;13.94;91.26;;;;;
2023/09/03 03:57:16;;;;;;;8.1;5.6;;;;;;;14.07;91.55;;;;;
2023/09/03 04:07:16;;;;;;;8.1;5.6;;;;;;;14.39;93.7;;;;;
2023/09/03 04:18:16;;;;;;;7.7;5.7;;;;;;;14.65;91.91;;;;;
2023/09/03 04:29:16;;;;;;;7.7;5.7;;;;;;;14.88;91.96;;;;;
2023/09/03 04:40:16;;;;;;;7.7;5.7;;;;;;;14.9;90.23;;;;;
2023/09/03 04:51:16;;;;;;;8.5;5.3;;;;;;;15;89.27;;;;;
2023/09/03 05:02:16;;;;;;;8.5;5.3;;;;;;;15.43;90.04;;;;;
2023/09/03 05:13:16;;;;;;;7.5;5.5;;;;;;;15.96;89.73;;;;;
2023/09/03 05:23:16;;;;;;;7.5;5.5;;;;;;;16.05;88.32;;;;;
2023/09/03 05:34:16;;;;;;;7.5;5.5;;;;;;;15.64;89.03;;;;;
2023/09/03 05:44:16;;;;;;;9.1;6.7;;;;;;;15.98;88.56;;;;;
2023/09/03 05:54:16;;;;;;;9.1;6.7;;;;;;;15.81;89.88;;;;;
2023/09/03 06:04:16;;;;;;;9.1;6.7;;;;;;;16.25;90.23;;;;;
2023/09/03 06:14:16;;;;;;;14;9.5;;;;;;;16.93;89.71;;;;;
2023/09/03 06:25:18;;;;;;;14;9.5;;;;;;;17.34;86.66;;;;;
2023/09/03 06:36:16;;;;;;;14;9.5;;;;;;;17.6;86.22;;;;;
2023/09/03 06:46:17;;;;;;;10.9;8.6;;;;;;;17.87;85.96;;;;;
2023/09/03 06:56:16;;;;;;;10.9;8.6;;;;;;;17.87;86.11;;;;;
2023/09/03 07:06:16;;;;;;;10.9;8.6;;;;;;;17.55;87.71;;;;;
2023/09/03 07:16:16;;;;;;;11.8;9.7;;;;;;;17.82;86.93;;;;;
2023/09/03 07:27:16;;;;;;;11.8;9.7;;;;;;;18.54;86.84;;;;;
2023/09/03 07:37:17;;;;;;;11.8;9.7;;;;;;;18.73;85.54;;;;;
2023/09/03 07:48:17;;;;;;;15.6;9.7;;;;;;;17.79;87.32;;;;;
2023/09/03 07:58:16;;;;;;;15.6;9.7;;;;;;;17.92;88.24;;;;;
2023/09/03 08:08:16;;;;;;;15.6;9.7;;;;;;;18.01;87.59;;;;;
2023/09/03 08:19:16;;;;;;;9;6.7;;;;;;;18.47;86.27;;;;;
2023/09/03 08:29:16;;;;;;;9;6.7;;;;;;;19.11;84.32;;;;;
2023/09/03 08:39:16;;;;;;;9;6.7;;;;;;;19.53;82.49;;;;;
2023/09/03 08:49:16;;;;;;;7.8;5.2;;;;;;;19.95;81.61;;;;;
2023/09/03 09:00:17;;;;;;;7.8;5.2;;;;;;;20;81.5;;;;;
2023/09/03 09:10:17;;;;;;;7.8;5.2;;;;;;;20.31;79.01;;;;;
2023/09/03 09:21:17;;;;;;;10.9;7.4;;;;;;;20.73;79.65;;;;;
2023/09/03 09:32:17;;;;;;;10.9;7.4;;;;;;;20.54;78.18;;;;;
2023/09/03 09:42:18;;;;;;;10.9;7.4;;;;;;;21.14;77.07;;;;;
2023/09/03 09:52:16;;;;;;;10.6;8.3;;;;;;;21.37;77.44;;;;;
2023/09/03 10:02:16;;;;;;;10.6;8.3;;;;;;;21.73;76.18;;;;;
2023/09/03 10:13:17;;;;;;;8.9;6.2;;;;;;;21.91;73.65;;;;;
2023/09/03 10:24:17;;;;;;;8.9;6.2;;;;;;;22.06;71.24;;;;;
2023/09/03 10:35:16;;;;;;;8.9;6.2;;;;;;;21.27;75.14;;;;;
2023/09/03 10:46:17;;;;;;;12.1;7.5;;;;;;;21.06;77.29;;;;;
2023/09/03 10:56:17;;;;;;;12.1;7.5;;;;;;;21.25;77.83;;;;;
2023/09/03 11:06:17;;;;;;;12.1;7.5;;;;;;;20.91;76.57;;;;;
2023/09/03 11:17:16;;;;;;;11.1;7.9;;;;;;;20.92;76.64;;;;;
2023/09/03 11:27:17;;;;;;;11.1;7.9;;;;;;;21.26;75.33;;;;;
2023/09/03 11:38:16;;;;;;;11.1;7.9;;;;;;;21.49;73.53;;;;;
2023/09/03 11:48:16;;;;;;;10.6;6.4;;;;;;;21.95;70.61;;;;;
2023/09/03 11:58:17;;;;;;;10.6;6.4;;;;;;;22.57;72.57;;;;;
2023/09/03 12:08:17;;;;;;;10.6;6.4;;;;;;;23.13;68.87;;;;;
2023/09/03 12:19:16;;;;;;;9.3;6.1;;;;;;;23.19;63.39;;;;;
2023/09/03 12:29:17;;;;;;;9.3;6.1;;;;;;;23.01;61.01;;;;;
2023/09/03 12:39:17;;;;;;;9.3;6.1;;;;;;;23.61;60.96;;;;;
2023/09/03 12:50:16;;;;;;;7;4.3;;;;;;;23.24;66.22;;;;;
2023/09/03 13:00:16;;;;;;;7;4.3;;;;;;;23.49;66.59;;;;;
2023/09/03 13:11:18;;;;;;;7;4.3;;;;;;;23.47;65.94;;;;;
2023/09/03 13:21:17;;;;;;;7.5;5.4;;;;;;;23.62;60.65;;;;;
2023/09/03 13:32:17;;;;;;;7.5;5.4;;;;;;;24.3;59.82;;;;;
2023/09/03 13:42:17;;;;;;;7.5;5.4;;;;;;;24.07;55.62;;;;;
2023/09/03 13:53:17;;;;;;;6.9;4.2;;;;;;;23.85;57.64;;;;;
2023/09/03 14:03:17;;;;;;;6.9;4.2;;;;;;;23.84;60.05;;;;;
2023/09/03 14:14:17;;;;;;;6.5;3.8;;;;;;;23.5;55.78;;;;;
2023/09/03 14:24:17;;;;;;;6.5;3.8;;;;;;;23.65;52.32;;;;;
2023/09/03 14:35:17;;;;;;;6.5;3.8;;;;;;;23.31;51.81;;;;;
2023/09/03 14:45:17;;;;;;;4.8;2.9;;;;;;;22.94;55.7;;;;;
2023/09/03 14:55:17;;;;;;;4.8;2.9;;;;;;;23.76;55.5;;;;;
2023/09/03 15:05:17;;;;;;;4.8;2.9;;;;;;;23.78;54.01;;;;;
2023/09/03 15:16:17;;;;;;;6.7;3.6;;;;;;;22.69;55.5;;;;;
2023/09/03 15:26:17;;;;;;;6.7;3.6;;;;;;;22.43;56.3;;;;;
2023/09/03 15:36:17;;;;;;;6.7;3.6;;;;;;;22.99;55.93;;;;;
2023/09/03 15:47:17;;;;;;;7.3;3.2;;;;;;;22.65;56.11;;;;;
2023/09/03 15:58:17;;;;;;;7.3;3.2;;;;;;;22.16;57.75;;;;;
2023/09/03 16:08:17;;;;;;;7.3;3.2;;;;;;;21.96;58.2;;;;;
2023/09/03 16:18:17;;;;;;;7.5;3.8;;;;;;;21.53;60.38;;;;;
2023/09/03 16:29:17;;;;;;;7.5;3.8;;;;;;;21.4;61.91;;;;;
2023/09/03 16:39:17;;;;;;;7.5;3.8;;;;;;;20.9;62.42;;;;;
2023/09/03 16:50:17;;;;;;;8.1;3;;;;;;;20.1;65.35;;;;;
2023/09/03 17:00:17;;;;;;;8.1;3;;;;;;;19.79;66.56;;;;;
2023/09/03 17:11:17;;;;;;;8.1;3;;;;;;;19.35;65.46;;;;;
2023/09/03 17:21:17;;;;;;;6.3;2.8;;;;;;;19.05;65.67;;;;;
2023/09/03 17:31:17;;;;;;;6.3;2.8;;;;;;;18.72;65.42;;;;;
2023/09/03 17:41:17;;;;;;;6.3;2.8;;;;;;;18.45;64.61;;;;;
2023/09/03 17:52:17;;;;;;;4.2;2.6;;;;;;;18.13;65.95;;;;;
2023/09/03 18:02:17;;;;;;;4.2;2.6;;;;;;;17.66;68.69;;;;;
2023/09/03 18:12:17;;;;;;;4.2;2.6;;;;;;;17.19;71.28;;;;;
2023/09/03 18:22:17;;;;;;;4.8;2.3;;;;;;;16.79;72.47;;;;;
2023/09/03 18:33:17;;;;;;;4.8;2.3;;;;;;;16.57;76.91;;;;;
2023/09/03 18:44:17;;;;;;;6.2;3;;;;;;;16.54;76.74;;;;;
2023/09/03 18:55:17;;;;;;;6.2;3;;;;;;;16.37;78.38;;;;;
2023/09/03 19:05:17;;;;;;;6.2;3;;;;;;;16.19;78.08;;;;;
2023/09/03 19:16:19;;;;;;;8.3;3.2;;;;;;;15.91;79.76;;;;;
2023/09/03 19:26:17;;;;;;;8.3;3.2;;;;;;;15.57;80.78;;;;;
2023/09/03 19:36:17;;;;;;;8.3;3.2;;;;;;;15.45;80.97;;;;;
2023/09/03 19:47:17;;;;;;;5.9;3.2;;;;;;;15.42;82.01;;;;;
2023/09/03 19:57:17;;;;;;;5.9;3.2;;;;;;;15.53;81.85;;;;;
2023/09/03 20:08:17;;;;;;;5.9;3.2;;;;;;;15.61;83.55;;;;;
2023/09/03 20:18:17;;;;;;;6.8;3.2;;;;;;;15.58;82.42;;;;;
2023/09/03 20:28:17;;;;;;;6.8;3.2;;;;;;;15.57;83.11;;;;;
2023/09/03 20:39:17;;;;;;;6.8;3.2;;;;;;;15.53;82.97;;;;;
2023/09/03 20:49:17;;;;;;;6.4;4;;;;;;;15.33;83.53;;;;;
2023/09/03 21:00:18;;;;;;;6.4;4;;;;;;;15.18;83.43;;;;;
2023/09/03 21:10:17;;;;;;;6.4;4;;;;;;;15.02;84.34;;;;;
2023/09/03 21:21:17;;;;;;;8.9;4.6;;;;;;;15.08;84.26;;;;;
2023/09/03 21:32:17;;;;;;;8.9;4.6;;;;;;;15.08;84.23;;;;;
2023/09/03 21:42:17;;;;;;;8.9;4.6;;;;;;;14.95;83.9;;;;;
2023/09/03 21:52:17;;;;;;;7.6;4.6;;;;;;;14.64;83.88;;;;;
2023/09/03 22:03:17;;;;;;;7.6;4.6;;;;;;;14.4;84.43;;;;;
2023/09/03 22:13:17;;;;;;;7.7;4.7;;;;;;;14.27;84.83;;;;;
2023/09/03 22:23:17;;;;;;;7.7;4.7;;;;;;;14.32;86.06;;;;;
2023/09/03 22:34:17;;;;;;;7.7;4.7;;;;;;;14.48;86.82;;;;;
2023/09/03 22:44:18;;;;;;;8.8;5.1;;;;;;;14.72;87.31;;;;;
2023/09/03 22:55:17;;;;;;;8.8;5.1;;;;;;;14.93;86.83;;;;;
2023/09/03 23:05:17;;;;;;;8.8;5.1;;;;;;;15.02;85.99;;;;;
2023/09/03 23:16:17;;;;;;;12.1;6.6;;;;;;;14.99;85.74;;;;;
2023/09/03 23:26:18;;;;;;;12.1;6.6;;;;;;;15.03;84.93;;;;;
2023/09/03 23:37:17;;;;;;;12.1;6.6;;;;;;;15.04;84.59;;;;;
2023/09/03 23:48:17;;;;;;;7.3;5;;;;;;;14.95;84.22;;;;;
2023/09/03 23:58:17;;;;;;;7.3;5;;;;;;;14.73;84.45;;;;;
